Huvudsida
METAR-TAF:

METAR-TAF

Flygplatser :

Podgoricas flygplats

Podgorica, Montenegro

latitud: 42-26N, longitud: 019-17E, höjd: 53 m

Aktuellt väderrapport

Denna rapport gjordes för 19 minuter sedan, klockan 19:30 UTC
Vind 4 kt från nord, varierande mellan nordväst och ost
Temperatur 6°C
Fuktighet 45%
Tryck 1019 hPa
Sikt 10 km eller mer
Inga moln under 1 500 m eller inga cumulonimbus

METAR: LYPG 281930Z 36004KT 310V080 CAVOK 06/M05 Q1019 NOSIG

Tid: 20:49 (19:49 UTC)

Väderprognos

Denna rapport gjordes för 2 timmar och 49 minuter sedan, klockan 17:00 UTC
Prognos gäller från 28 kl. 18 UTC till 29 kl. 18 UTC
Vind 12 kt från nord/nordost
Sikt 10 km eller mer
Inga moln under 1 500 m eller inga cumulonimbus
Temporärt
från 28 kl. 18 UTC till 28 kl. 21 UTC
Vind 15 kt från nord i byarna ända upp till 25 kt
Blir
från 29 kl. 04 UTC till 29 kl. 06 UTC
Vind 5 kt från nord

TAF: LYPG 281700Z 2818/2918 02012KT CAVOK TX12/2913Z TN00/2905Z TEMPO 2818/2821 36015G25KT BECMG 2904/2906 36005KT

Aktuella väderrapporter och prognoser från 4000 flygplatser (METAR- och TAF-rapporter).

De tillgängliga stationerna syns som gula och röda prickar på kartan.

För musen över prickarna för att se namnen på stationerna.

Klicka sedan för att få väderrapporter och prognoser.

För att ändra kartan: Klicka på de gröna knapparna med ett svart kors på för att zooma in; den gröna knappen med ett streck på för att zooma ut; eller på de gröna pilarna för angränsande kartor.


METAR-TAF: